Time;durP1;ratioP1;P1;durP2;ratioP2;P2;SDS_P1;SDS_P2;PMS_P1;PMS_P2;Temp;Humidity;BMP_temperature;BMP_pressure;BME280_temperature;BME280_humidity;BME280_pressure;Samples;Min_cycle;Max_cycle;Signal;HPM_P1;HPM_P2
2023/04/02 00:00:08;;;;;;;5.85;4.00;;;;;;;9.66;72.13;99130.59;5065889;28;20111;-27
2023/04/02 00:02:43;;;;;;;5.53;3.63;;;;;;;9.63;72.28;99131.06;5065917;28;20024;-27
2023/04/02 00:05:30;;;;;;;5.60;3.33;;;;;;;9.63;72.02;99137.19;5065733;28;20063;-27
2023/04/02 00:08:20;;;;;;;6.30;4.03;;;;;;;9.55;71.26;99118.94;5065737;28;20726;-27
2023/04/02 00:10:54;;;;;;;5.70;3.00;;;;;;;9.63;70.74;99123.88;5046042;28;20045;-27
2023/04/02 00:13:40;;;;;;;4.10;2.75;;;;;;;9.85;69.08;99131.25;5049432;28;20099;-28
2023/04/02 00:16:10;;;;;;;3.75;2.30;;;;;;;9.71;69.33;99109.41;5049707;28;20028;-27
2023/04/02 00:18:42;;;;;;;5.20;2.30;;;;;;;9.74;70.04;99129.41;5049713;28;20496;-26
2023/04/02 00:21:28;;;;;;;3.80;2.20;;;;;;;9.70;69.50;99102.44;5049569;28;20112;-28
2023/04/02 00:23:54;;;;;;;3.50;2.30;;;;;;;9.86;69.03;99130.19;5049307;28;20040;-27
2023/04/02 00:26:32;;;;;;;4.40;2.80;;;;;;;9.59;69.75;99122.75;5049676;28;20079;-27
2023/04/02 00:28:59;;;;;;;4.00;2.60;;;;;;;9.63;69.04;99128.41;5049472;28;20082;-27
2023/04/02 00:31:24;;;;;;;3.03;2.17;;;;;;;9.63;69.53;99131.06;5049382;28;20029;-27
2023/04/02 00:33:52;;;;;;;3.45;2.15;;;;;;;9.46;69.47;99104.38;5049253;28;20075;-28
2023/04/02 00:36:20;;;;;;;3.47;2.13;;;;;;;9.69;68.75;99126.66;5049165;28;20048;-27
2023/04/02 00:38:47;;;;;;;5.15;2.42;;;;;;;9.59;69.36;99125.41;5049291;28;20036;-27
2023/04/02 00:41:21;;;;;;;2.97;2.28;;;;;;;9.45;70.05;99119.53;5049193;28;20504;-27
2023/04/02 00:43:49;;;;;;;4.45;2.35;;;;;;;9.42;70.27;99105.91;5049299;28;20029;-28
2023/04/02 00:46:20;;;;;;;4.15;2.78;;;;;;;9.41;70.28;99110.38;5049276;28;20036;-27
2023/04/02 00:49:04;;;;;;;4.07;2.67;;;;;;;9.38;70.29;99089.59;5049204;28;20025;-27
2023/04/02 00:51:43;;;;;;;3.78;2.40;;;;;;;9.21;71.34;99092.16;5048589;28;20119;-28
2023/04/02 00:54:14;;;;;;;4.75;2.72;;;;;;;9.03;71.44;99082.47;5049015;28;20115;-27
2023/04/02 00:56:45;;;;;;;3.88;2.50;;;;;;;9.28;71.11;99109.84;5048853;28;20032;-27
2023/04/02 00:59:32;;;;;;;4.20;2.70;;;;;;;9.15;72.19;99125.00;5049134;28;20037;-27
2023/04/02 01:02:21;;;;;;;3.58;2.67;;;;;;;8.73;74.30;99119.81;5048902;28;20448;-27
2023/04/02 01:05:16;;;;;;;3.97;2.50;;;;;;;8.65;75.23;99122.81;5048862;28;20037;-27
2023/04/02 01:08:06;;;;;;;4.93;2.90;;;;;;;8.39;76.18;99131.94;5027644;28;20524;-27
2023/04/02 01:10:41;;;;;;;3.60;2.60;;;;;;;8.53;76.03;99125.44;5048464;28;20033;-27
2023/04/02 01:13:28;;;;;;;4.80;2.85;;;;;;;8.39;75.81;99130.09;5048587;28;20025;-27
2023/04/02 01:16:05;;;;;;;3.60;2.53;;;;;;;8.38;76.08;99133.00;5048324;28;20091;-27
2023/04/02 01:18:53;;;;;;;4.40;2.50;;;;;;;8.52;75.34;99123.00;5048572;28;20511;-27
2023/04/02 01:21:30;;;;;;;4.18;2.70;;;;;;;8.74;74.24;99137.34;5048287;28;20111;-27
2023/04/02 01:24:14;;;;;;;4.85;2.67;;;;;;;8.80;74.04;99139.09;5047500;28;20585;-27
2023/04/02 01:26:43;;;;;;;3.95;2.40;;;;;;;8.89;73.52;99138.75;5048468;28;20040;-27
2023/04/02 01:29:19;;;;;;;4.65;2.80;;;;;;;8.81;73.76;99118.66;5048383;28;20033;-27
2023/04/02 01:31:47;;;;;;;4.90;2.60;;;;;;;8.95;72.97;99151.13;5048477;28;20032;-27
2023/04/02 01:34:16;;;;;;;4.43;2.87;;;;;;;8.75;73.55;99122.25;5048110;28;20499;-27
2023/04/02 01:36:47;;;;;;;3.78;2.35;;;;;;;8.97;74.00;99152.53;5047981;28;20029;-27
2023/04/02 01:40:17;;;;;;;4.35;2.58;;;;;;;9.08;73.07;99158.91;5048038;28;20045;-27
2023/04/02 01:42:51;;;;;;;3.72;2.40;;;;;;;9.23;72.65;99158.41;4995278;28;20029;-27
2023/04/02 01:45:20;;;;;;;4.68;2.65;;;;;;;9.12;72.66;99159.25;5047818;28;20029;-27
2023/04/02 01:47:46;;;;;;;5.80;2.50;;;;;;;9.16;72.94;99155.09;5048013;28;20021;-28
2023/04/02 01:50:17;;;;;;;3.88;2.30;;;;;;;9.13;72.57;99164.31;5047982;28;20021;-27
2023/04/02 01:52:45;;;;;;;3.60;2.28;;;;;;;8.80;72.97;99131.13;5047913;28;20044;-27
2023/04/02 01:55:16;;;;;;;4.07;2.10;;;;;;;8.94;72.42;99141.53;5047833;28;20025;-27
2023/04/02 01:57:45;;;;;;;2.95;2.15;;;;;;;8.85;73.27;99139.22;5047632;28;20083;-28
2023/04/02 02:00:16;;;;;;;3.72;2.28;;;;;;;8.69;73.83;99155.06;5047196;28;20124;-28
2023/04/02 02:02:45;;;;;;;4.60;2.22;;;;;;;8.55;74.18;99141.16;5047500;28;20043;-27
2023/04/02 02:05:21;;;;;;;3.28;2.08;;;;;;;8.66;74.07;99145.66;5047501;28;20079;-27
2023/04/02 02:07:47;;;;;;;2.58;1.80;;;;;;;8.57;74.03;99141.72;5047126;28;20094;-27
2023/04/02 02:10:22;;;;;;;3.20;2.25;;;;;;;8.38;74.49;99120.53;5047722;28;20427;-27
2023/04/02 02:12:47;;;;;;;4.70;3.00;;;;;;;8.55;74.55;99143.81;5047701;28;20026;-27
2023/04/02 02:15:19;;;;;;;4.82;2.40;;;;;;;8.67;73.93;99141.97;5047215;28;20057;-26
2023/04/02 02:17:45;;;;;;;3.80;2.17;;;;;;;8.52;74.73;99129.13;5047203;28;20025;-27
2023/04/02 02:20:12;;;;;;;3.40;2.05;;;;;;;8.68;74.00;99127.63;5047224;28;20033;-27
2023/04/02 02:22:49;;;;;;;5.82;2.50;;;;;;;8.56;74.93;99116.19;5046965;28;20021;-27
2023/04/02 02:25:21;;;;;;;3.72;2.30;;;;;;;8.46;75.28;99116.78;5047294;28;20025;-27
2023/04/02 02:27:55;;;;;;;5.18;2.38;;;;;;;8.35;75.53;99102.38;5047133;28;20116;-27
2023/04/02 02:30:29;;;;;;;3.30;2.08;;;;;;;8.25;75.26;99079.03;5047049;28;20024;-28
2023/04/02 02:33:20;;;;;;;4.22;2.30;;;;;;;8.28;75.07;99079.63;5046948;28;20048;-28
2023/04/02 02:35:48;;;;;;;3.35;2.03;;;;;;;8.41;74.82;99106.81;5047016;28;20112;-27
2023/04/02 02:38:33;;;;;;;3.53;2.30;;;;;;;8.49;74.71;99104.88;5047116;28;20048;-27
2023/04/02 02:41:36;;;;;;;3.72;2.10;;;;;;;8.48;74.86;99121.84;5047116;28;20104;-27
2023/04/02 02:44:08;;;;;;;2.70;1.77;;;;;;;8.62;73.77;99117.94;5046709;28;20512;-27
2023/04/02 02:46:36;;;;;;;2.75;2.00;;;;;;;8.61;72.79;99095.06;5046691;28;20068;-28
2023/04/02 02:49:03;;;;;;;4.25;2.30;;;;;;;8.79;72.79;99118.88;5046879;28;20023;-27
2023/04/02 02:51:42;;;;;;;4.07;2.45;;;;;;;8.95;71.68;99133.34;5046612;28;20025;-27
2023/04/02 02:54:08;;;;;;;3.13;1.85;;;;;;;8.90;70.90;99121.78;5046523;28;20044;-27
2023/04/02 02:56:39;;;;;;;3.38;2.05;;;;;;;8.94;70.81;99117.63;5046778;28;20028;-27
2023/04/02 02:59:08;;;;;;;2.95;1.90;;;;;;;9.07;71.03;99108.59;5046998;28;20036;-27
2023/04/02 03:01:34;;;;;;;4.03;2.05;;;;;;;9.33;70.15;99147.19;5046644;28;20098;-26
2023/04/02 03:04:02;;;;;;;3.80;2.25;;;;;;;9.38;69.17;99142.00;5046586;28;20056;-26
2023/04/02 03:06:29;;;;;;;3.67;2.20;;;;;;;9.29;69.42;99143.38;5046239;28;20037;-26
2023/04/02 03:09:12;;;;;;;3.40;2.10;;;;;;;9.52;68.85;99147.84;5046540;28;20021;-26
2023/04/02 03:11:49;;;;;;;2.95;1.80;;;;;;;9.62;67.99;99146.25;5046218;28;20523;-26
2023/04/02 03:14:15;;;;;;;3.63;2.07;;;;;;;9.53;68.73;99149.50;5046339;28;20512;-26
2023/04/02 03:16:46;;;;;;;3.80;2.13;;;;;;;9.29;69.34;99132.75;5046301;28;20334;-26
2023/04/02 03:19:27;;;;;;;4.32;2.00;;;;;;;9.21;70.48;99142.72;5046408;28;20021;-26
2023/04/02 03:22:22;;;;;;;3.08;1.90;;;;;;;9.06;69.28;99139.69;5046001;28;20081;-26
2023/04/02 03:25:23;;;;;;;4.10;1.70;;;;;;;9.27;68.27;99142.81;5046386;28;20025;-26
2023/04/02 03:27:52;;;;;;;3.78;1.98;;;;;;;9.23;68.58;99145.13;5014274;28;20034;-26
2023/04/02 03:30:35;;;;;;;3.17;1.70;;;;;;;9.17;69.09;99128.22;5046015;28;20393;-26
2023/04/02 03:33:05;;;;;;;2.42;1.50;;;;;;;9.25;68.28;99143.88;5046142;28;20033;-26
2023/04/02 03:35:48;;;;;;;3.22;1.67;;;;;;;9.23;67.96;99129.16;5046139;28;20040;-26
2023/04/02 03:38:45;;;;;;;3.33;1.70;;;;;;;9.52;66.54;99148.69;5046058;28;20031;-25
2023/04/02 03:41:25;;;;;;;1.90;1.50;;;;;;;9.57;66.79;99151.44;5011731;28;20037;-26
2023/04/02 03:43:59;;;;;;;2.55;1.50;;;;;;;9.64;65.88;99156.63;5045903;28;20032;-26
2023/04/02 03:46:25;;;;;;;2.33;1.30;;;;;;;9.65;65.83;99143.09;5046722;28;20029;-26
2023/04/02 03:48:54;;;;;;;2.17;1.38;;;;;;;9.53;65.64;99129.00;5050472;28;20416;-26
2023/04/02 03:51:30;;;;;;;2.67;1.60;;;;;;;9.72;65.50;99152.81;5050146;28;20074;-27
2023/04/02 03:53:56;;;;;;;3.95;1.27;;;;;;;9.60;65.67;99153.66;5049966;28;20056;-27
2023/04/02 03:56:29;;;;;;;2.53;1.40;;;;;;;9.71;64.90;99154.66;5049939;28;20029;-27
2023/04/02 03:59:22;;;;;;;1.75;1.25;;;;;;;9.83;64.83;99152.78;5050015;28;20033;-27
2023/04/02 04:02:24;;;;;;;2.45;1.40;;;;;;;9.98;64.39;99162.09;5049519;28;20090;-27
2023/04/02 04:04:50;;;;;;;2.35;1.50;;;;;;;9.93;63.58;99160.16;5050048;28;20068;-27
2023/04/02 04:07:34;;;;;;;3.13;1.38;;;;;;;9.95;63.41;99174.06;5049825;28;20066;-27
2023/04/02 04:10:01;;;;;;;2.45;1.58;;;;;;;9.92;64.38;99171.84;5049758;28;20021;-27
2023/04/02 04:12:42;;;;;;;2.30;1.47;;;;;;;9.92;64.80;99150.53;5049933;28;20078;-26
2023/04/02 04:15:16;;;;;;;3.10;1.27;;;;;;;10.05;63.93;99168.94;5049429;28;20051;-27
2023/04/02 04:17:52;;;;;;;4.53;2.10;;;;;;;10.13;65.46;99175.72;5049643;28;20032;-27
2023/04/02 04:20:33;;;;;;;9.20;5.10;;;;;;;10.12;66.75;99178.63;5049680;28;20144;-27
2023/04/02 04:23:29;;;;;;;10.68;6.57;;;;;;;9.74;68.31;99177.34;5049573;28;20028;-27
2023/04/02 04:26:08;;;;;;;6.53;4.20;;;;;;;9.46;69.41;99170.91;5049542;28;20507;-27
2023/04/02 04:28:57;;;;;;;4.88;2.70;;;;;;;9.45;69.59;99185.25;5049397;28;20071;-27
2023/04/02 04:31:32;;;;;;;3.42;2.13;;;;;;;9.47;69.63;99182.38;5049608;28;20045;-26
2023/04/02 04:34:04;;;;;;;3.58;2.20;;;;;;;9.51;70.33;99189.66;5049491;28;20035;-27
2023/04/02 04:36:40;;;;;;;4.15;2.20;;;;;;;9.62;70.73;99191.50;5049377;28;20120;-27
2023/04/02 04:39:13;;;;;;;4.20;2.20;;;;;;;9.71;70.89;99204.44;5049340;28;20508;-27
2023/04/02 04:41:41;;;;;;;6.47;2.95;;;;;;;9.70;71.76;99192.16;5049581;28;20032;-27
2023/04/02 04:44:09;;;;;;;5.00;2.67;;;;;;;9.58;69.97;99203.66;5049130;28;20041;-27
2023/04/02 04:46:37;;;;;;;;;;;;;;;9.73;69.77;99202.34;5049554;28;20911;-27
2023/04/02 04:49:40;;;;;;;5.07;2.55;;;;;;;9.77;70.65;99198.19;5031278;28;19917;-27
2023/04/02 04:52:23;;;;;;;5.85;2.60;;;;;;;9.83;69.01;99191.91;5048835;28;20025;-27
2023/04/02 04:54:48;;;;;;;4.38;2.35;;;;;;;9.84;69.00;99204.97;5049120;28;20029;-27
2023/04/02 04:57:40;;;;;;;5.45;2.13;;;;;;;10.06;69.15;99205.16;5048907;28;20035;-27
2023/04/02 05:00:17;;;;;;;4.70;2.03;;;;;;;10.01;69.69;99205.06;5037154;28;20037;-27
2023/04/02 05:03:27;;;;;;;3.50;2.42;;;;;;;10.08;69.07;99217.44;5048908;28;20021;-27
2023/04/02 05:05:53;;;;;;;3.38;2.20;;;;;;;9.95;70.63;99215.84;5023094;28;20452;-27
2023/04/02 05:08:25;;;;;;;6.40;2.53;;;;;;;10.01;70.73;99198.91;5048716;28;20078;-27
2023/04/02 05:10:56;;;;;;;3.33;2.13;;;;;;;9.95;71.92;99198.03;5048671;28;20104;-27
2023/04/02 05:13:30;;;;;;;6.00;2.42;;;;;;;10.27;70.84;99218.88;5048548;28;20705;-27
2023/04/02 05:16:14;;;;;;;5.13;2.65;;;;;;;10.35;69.54;99226.53;5048396;28;20032;-27
2023/04/02 05:18:49;;;;;;;4.05;2.17;;;;;;;10.36;70.34;99233.47;5048621;28;20576;-27
2023/04/02 05:21:17;;;;;;;85.28;48.13;;;;;;;10.54;69.62;99229.00;5048482;28;20119;-27
2023/04/02 05:23:50;;;;;;;;;;;;;;;10.41;70.71;99230.91;5048916;28;20025;-27
2023/04/02 05:26:24;;;;;;;10.38;5.07;;;;;;;10.57;68.81;99239.19;5048037;28;20461;-27
2023/04/02 05:28:49;;;;;;;4.15;2.40;;;;;;;10.79;69.50;99248.13;5048030;28;20145;-27
2023/04/02 05:31:24;;;;;;;4.43;2.53;;;;;;;10.88;68.85;99229.06;5048303;28;20104;-27
2023/04/02 05:33:51;;;;;;;4.30;2.45;;;;;;;10.85;69.44;99239.16;5048209;28;20025;-27
2023/04/02 05:36:23;;;;;;;11.07;9.88;;;;;;;11.03;69.08;99229.28;5047915;28;20035;-27
2023/04/02 05:38:50;;;;;;;6.38;5.35;;;;;;;10.86;69.24;99245.28;5048205;28;20017;-27
2023/04/02 05:41:46;;;;;;;5.40;3.90;;;;;;;10.93;69.25;99242.47;5047750;28;20086;-26
2023/04/02 05:44:18;;;;;;;9.90;6.15;;;;;;;10.53;72.32;99248.72;5026746;28;20052;-27
2023/04/02 05:46:53;;;;;;;24.38;12.57;;;;;;;10.71;71.38;99251.19;5048043;28;20032;-27
2023/04/02 05:49:38;;;;;;;14.35;7.65;;;;;;;11.00;68.79;99251.13;5048171;28;20025;-27
2023/04/02 05:52:07;;;;;;;9.52;7.10;;;;;;;11.00;68.78;99261.81;5047723;28;20029;-27
2023/04/02 05:54:47;;;;;;;9.30;5.82;;;;;;;11.20;67.41;99262.13;5047610;28;20020;-27
2023/04/02 05:57:19;;;;;;;10.57;9.38;;;;;;;11.30;66.26;99244.66;5047780;28;20033;-27
2023/04/02 05:59:52;;;;;;;12.10;5.72;;;;;;;11.47;67.04;99269.50;5046070;28;20048;-27
2023/04/02 06:02:26;;;;;;;15.13;13.30;;;;;;;11.63;66.77;99249.16;5047562;28;20037;-27
2023/04/02 06:05:15;;;;;;;6.85;4.18;;;;;;;11.80;66.04;99262.47;5047481;28;20025;-27
2023/04/02 06:07:55;;;;;;;5.97;3.15;;;;;;;11.51;65.57;99235.91;5047528;28;20056;-26
2023/04/02 06:10:30;;;;;;;6.57;3.47;;;;;;;11.50;67.42;99225.47;5047307;28;20104;-28
2023/04/02 06:13:02;;;;;;;7.53;4.03;;;;;;;11.56;65.99;99233.28;5047534;28;20029;-27
2023/04/02 06:15:29;;;;;;;13.32;5.65;;;;;;;11.60;66.72;99242.44;5047552;28;20032;-27
2023/04/02 06:17:57;;;;;;;8.35;4.10;;;;;;;11.61;66.96;99240.59;5047457;28;20017;-27
2023/04/02 06:20:23;;;;;;;9.68;4.68;;;;;;;11.82;65.31;99242.47;5047343;28;20040;-27
2023/04/02 06:22:54;;;;;;;4.95;2.83;;;;;;;11.95;64.27;99238.69;5046998;28;20021;-27
2023/04/02 06:25:26;;;;;;;6.30;2.97;;;;;;;12.29;63.86;99262.59;5047240;28;20111;-26
2023/04/02 06:27:55;;;;;;;4.63;2.72;;;;;;;12.31;62.74;99252.47;5047118;28;20040;-27
2023/04/02 06:30:30;;;;;;;4.65;2.90;;;;;;;12.70;62.48;99271.06;5046983;28;20029;-27
2023/04/02 06:32:55;;;;;;;5.38;2.55;;;;;;;12.85;61.26;99273.91;5047056;28;20025;-27
2023/04/02 06:35:21;;;;;;;7.82;2.47;;;;;;;13.17;59.76;99275.78;5046886;28;20036;-27
2023/04/02 06:37:50;;;;;;;11.68;4.10;;;;;;;13.00;61.08;99259.03;5047146;28;20538;-27
2023/04/02 06:40:34;;;;;;;11.75;4.72;;;;;;;13.76;59.14;99276.75;5046703;28;20039;-27
2023/04/02 06:43:06;;;;;;;6.63;3.08;;;;;;;13.61;59.58;99266.75;5046779;28;20083;-28
2023/04/02 06:45:40;;;;;;;9.75;4.68;;;;;;;13.91;59.33;99284.88;5046601;28;20083;-27
2023/04/02 06:48:18;;;;;;;5.68;2.92;;;;;;;13.63;55.17;99273.47;5046890;28;20116;-27
2023/04/02 06:50:48;;;;;;;;;;;;;;;13.54;55.23;99296.44;5047056;28;20082;-28
2023/04/02 06:53:25;;;;;;;4.78;1.83;;;;;;;13.65;55.34;99289.31;5046534;28;19909;-27
2023/04/02 06:56:30;;;;;;;4.20;1.70;;;;;;;13.80;57.09;99283.22;5046658;28;20044;-27
2023/04/02 06:58:57;;;;;;;6.35;2.10;;;;;;;13.61;56.06;99290.88;5046761;28;20035;-27
2023/04/02 07:01:29;;;;;;;12.82;2.72;;;;;;;13.76;56.84;99293.63;5046563;28;20065;-27
2023/04/02 07:03:55;;;;;;;11.35;2.15;;;;;;;13.98;56.37;99301.53;5046311;28;20029;-26
2023/04/02 07:06:21;;;;;;;4.40;1.80;;;;;;;14.05;54.94;99299.44;5046881;28;20029;-27
2023/04/02 07:08:47;;;;;;;2.75;1.60;;;;;;;14.11;54.70;99305.63;4841170;28;20687;-27
2023/04/02 07:11:15;;;;;;;3.90;1.52;;;;;;;14.18;52.91;99292.81;5046365;28;20560;-27
2023/04/02 07:13:41;;;;;;;;;;;;;;;14.45;53.60;99306.06;5046866;28;20024;-27
2023/04/02 07:16:14;;;;;;;2.28;1.10;;;;;;;14.39;51.46;99307.09;5046482;28;20289;-27
2023/04/02 07:18:40;;;;;;;3.72;1.40;;;;;;;14.50;51.58;99299.88;5046433;28;20043;-27
2023/04/02 07:21:06;;;;;;;3.95;1.38;;;;;;;14.42;51.55;99309.25;5046067;28;20025;-27
2023/04/02 07:23:31;;;;;;;9.65;5.35;;;;;;;14.32;50.37;99303.03;5046245;28;20081;-28
2023/04/02 07:25:57;;;;;;;2.63;1.38;;;;;;;14.37;49.76;99303.88;5046257;28;20600;-27
2023/04/02 07:28:23;;;;;;;2.60;1.20;;;;;;;14.51;49.38;99320.28;5046079;28;20083;-27
2023/04/02 07:30:50;;;;;;;4.05;1.00;;;;;;;14.21;49.67;99304.88;5045890;28;20063;-27
2023/04/02 07:33:18;;;;;;;2.38;1.30;;;;;;;14.14;49.83;99298.94;5046237;28;20029;-27
2023/04/02 07:35:44;;;;;;;;;;;;;;;14.50;48.83;99323.22;5046536;28;20053;-27
2023/04/02 07:38:10;;;;;;;0.77;0.63;;;;;;;14.60;49.14;99320.63;5046094;28;19991;-27
2023/04/02 07:40:36;;;;;;;2.53;1.10;;;;;;;14.63;49.33;99322.78;5046085;28;21396;-27
2023/04/02 07:43:01;;;;;;;2.13;1.00;;;;;;;14.89;49.88;99320.16;5046451;28;20730;-27
2023/04/02 07:45:27;;;;;;;1.88;1.02;;;;;;;14.97;47.01;99327.69;5046142;28;20048;-28
2023/04/02 07:47:53;;;;;;;1.27;0.82;;;;;;;14.56;47.24;99327.56;5046019;28;20017;-27
2023/04/02 07:50:18;;;;;;;2.33;1.00;;;;;;;14.77;47.68;99329.28;5046135;28;20397;-28
2023/04/02 07:52:44;;;;;;;2.38;0.98;;;;;;;14.95;47.46;99327.94;5045988;28;20108;-28
2023/04/02 07:55:12;;;;;;;1.85;1.00;;;;;;;14.98;48.68;99313.22;5046333;28;20021;-28
2023/04/02 07:57:40;;;;;;;1.83;1.00;;;;;;;14.94;46.75;99320.19;5045851;28;20032;-27
2023/04/02 08:00:11;;;;;;;8.82;3.80;;;;;;;15.00;46.44;99321.81;5045702;28;20079;-27
2023/04/02 08:02:36;;;;;;;18.35;8.45;;;;;;;14.81;46.40;99325.00;5045733;28;20104;-27
2023/04/02 08:05:02;;;;;;;8.80;3.05;;;;;;;14.91;46.68;99326.88;5046079;28;20119;-28
2023/04/02 08:07:27;;;;;;;4.43;1.95;;;;;;;15.12;47.27;99322.34;5045868;28;20494;-27
2023/04/02 08:09:53;;;;;;;3.03;1.30;;;;;;;15.18;47.78;99321.28;5045913;28;20541;-27
2023/04/02 08:12:18;;;;;;;2.45;1.15;;;;;;;15.47;46.68;99318.06;5045833;28;20071;-27
2023/04/02 08:14:44;;;;;;;1.70;1.02;;;;;;;15.64;46.67;99331.22;5045619;28;20029;-27
2023/04/02 08:17:09;;;;;;;11.32;4.53;;;;;;;15.64;45.32;99320.47;5045483;28;20024;-27
2023/04/02 08:19:35;;;;;;;11.77;4.70;;;;;;;15.24;45.13;99322.91;5045635;28;20025;-27
2023/04/02 08:22:00;;;;;;;3.75;1.73;;;;;;;15.46;45.58;99314.56;5045591;28;20040;-27
2023/04/02 08:24:25;;;;;;;4.10;2.55;;;;;;;15.61;45.30;99316.44;5045728;28;20041;-27
2023/04/02 08:26:52;;;;;;;6.72;2.80;;;;;;;15.59;44.83;99318.59;5045632;28;20033;-27
2023/04/02 08:29:19;;;;;;;14.05;6.22;;;;;;;15.46;45.66;99319.13;5045834;28;20493;-28
2023/04/02 08:31:44;;;;;;;15.68;7.07;;;;;;;15.59;45.51;99320.47;5045683;28;20523;-27
2023/04/02 08:34:10;;;;;;;12.57;5.00;;;;;;;15.91;44.94;99314.81;5049034;28;20124;-27
2023/04/02 08:36:40;;;;;;;7.45;3.70;;;;;;;15.92;45.77;99294.91;5049034;28;20048;-27
2023/04/02 08:39:10;;;;;;;17.02;7.18;;;;;;;16.26;45.36;99283.50;5049537;28;20135;-28
2023/04/02 08:41:51;;;;;;;29.55;9.95;;;;;;;16.77;45.30;99312.84;5049479;28;20031;-27
2023/04/02 08:44:31;;;;;;;21.45;7.15;;;;;;;16.96;42.35;99325.69;5049349;28;20060;-28
2023/04/02 08:47:03;;;;;;;11.85;5.00;;;;;;;16.78;42.70;99317.16;5049210;28;20054;-27
2023/04/02 08:49:54;;;;;;;33.63;15.85;;;;;;;17.18;41.30;99301.84;5048930;28;20025;-27
2023/04/02 08:52:31;;;;;;;2.97;1.67;;;;;;;17.01;42.21;99298.75;5048704;28;20029;-27
2023/04/02 08:54:59;;;;;;;26.92;10.52;;;;;;;17.43;42.56;99318.91;5049058;28;20423;-27
2023/04/02 08:57:34;;;;;;;16.67;8.13;;;;;;;17.34;42.88;99307.09;5049107;28;21114;-27
2023/04/02 09:00:19;;;;;;;29.77;11.90;;;;;;;17.09;40.85;99321.59;5048685;28;20554;-27
2023/04/02 09:03:09;;;;;;;52.03;18.30;;;;;;;16.71;43.08;99323.94;5048835;28;20103;-28
2023/04/02 09:05:40;;;;;;;23.42;8.90;;;;;;;16.76;41.40;99319.31;5049254;28;20036;-28
2023/04/02 09:08:18;;;;;;;6.97;3.15;;;;;;;16.42;42.72;99314.63;5048849;28;20108;-27
2023/04/02 09:10:52;;;;;;;2.92;1.10;;;;;;;16.65;41.79;99317.75;5048832;28;20025;-28
2023/04/02 09:13:29;;;;;;;4.60;1.25;;;;;;;16.45;42.76;99303.34;5048898;28;20041;-27
2023/04/02 09:16:05;;;;;;;1.67;1.00;;;;;;;16.46;43.61;99315.69;5049020;28;20094;-27
2023/04/02 09:18:32;;;;;;;1.13;1.00;;;;;;;16.72;41.42;99312.09;5048576;28;20527;-28
2023/04/02 09:20:57;;;;;;;1.75;1.08;;;;;;;16.57;41.85;99316.47;5048397;28;20040;-28
2023/04/02 09:23:26;;;;;;;1.30;0.70;;;;;;;16.28;41.81;99308.22;5048373;28;20025;-28
2023/04/02 09:25:53;;;;;;;4.63;1.20;;;;;;;16.72;41.94;99306.72;5048453;28;20025;-27
2023/04/02 09:28:25;;;;;;;2.05;1.20;;;;;;;16.91;41.21;99310.38;5048468;28;20021;-28
2023/04/02 09:31:04;;;;;;;2.60;1.10;;;;;;;16.65;41.71;99304.28;5048561;28;20053;-27
2023/04/02 09:33:41;;;;;;;2.40;1.27;;;;;;;16.68;42.85;99301.06;5048199;28;20033;-27
2023/04/02 09:36:17;;;;;;;3.03;1.30;;;;;;;16.78;43.16;99282.16;5048236;28;20081;-27
2023/04/02 09:39:06;;;;;;;2.33;1.05;;;;;;;17.21;42.94;99298.59;5048286;28;20032;-28
2023/04/02 09:41:34;;;;;;;3.00;1.38;;;;;;;17.47;42.29;99296.50;5048248;28;20159;-28
2023/04/02 09:44:23;;;;;;;2.72;1.85;;;;;;;17.92;40.55;99293.66;5047641;28;20025;-27
2023/04/02 09:46:51;;;;;;;2.45;1.08;;;;;;;17.83;40.41;99293.47;5047887;28;20095;-27
2023/04/02 09:49:20;;;;;;;2.92;1.23;;;;;;;18.14;40.14;99292.34;5048249;28;20029;-27
2023/04/02 09:52:07;;;;;;;1.65;1.02;;;;;;;18.13;39.44;99269.16;5048032;28;20087;-28
2023/04/02 09:54:32;;;;;;;3.53;1.33;;;;;;;18.56;38.59;99282.63;5048059;28;20204;-28
2023/04/02 09:57:02;;;;;;;1.65;0.85;;;;;;;18.92;37.95;99285.66;5047782;28;20123;-28
2023/04/02 09:59:28;;;;;;;3.15;1.50;;;;;;;18.98;36.55;99278.28;5047808;28;20032;-27
2023/04/02 10:01:53;;;;;;;1.88;1.08;;;;;;;19.45;37.23;99292.66;5047657;28;20425;-28
2023/04/02 10:04:46;;;;;;;3.25;1.10;;;;;;;19.67;35.84;99273.84;5047582;28;20423;-27
2023/04/02 10:07:33;;;;;;;1.85;0.98;;;;;;;20.02;34.72;99268.94;5047552;28;20025;-28
2023/04/02 10:10:02;;;;;;;4.22;1.02;;;;;;;19.89;35.57;99249.97;5047540;28;20033;-28
2023/04/02 10:12:34;;;;;;;1.38;0.95;;;;;;;19.91;36.15;99248.56;5047452;28;20035;-28
2023/04/02 10:15:02;;;;;;;2.67;1.30;;;;;;;20.27;34.40;99253.28;5047801;28;20529;-28
2023/04/02 10:17:35;;;;;;;1.50;0.95;;;;;;;20.20;36.57;99253.66;5047565;28;20037;-28
2023/04/02 10:20:10;;;;;;;2.75;1.20;;;;;;;20.11;34.73;99238.44;5047679;28;20587;-28
2023/04/02 10:22:39;;;;;;;2.85;1.52;;;;;;;20.65;36.71;99242.16;5047389;28;20036;-28
2023/04/02 10:25:16;;;;;;;2.15;0.80;;;;;;;21.06;32.34;99265.59;5047398;28;20049;-28
2023/04/02 10:27:56;;;;;;;2.42;1.05;;;;;;;20.72;33.44;99239.84;5047327;28;20048;-28
2023/04/02 10:30:40;;;;;;;2.15;0.90;;;;;;;21.30;34.17;99242.81;5047184;28;20056;-28
2023/04/02 10:33:21;;;;;;;0.93;0.50;;;;;;;21.73;31.24;99248.47;5047261;28;20040;-28
2023/04/02 10:36:00;;;;;;;1.25;0.52;;;;;;;21.39;31.45;99244.47;5047305;28;20592;-28
2023/04/02 10:38:38;;;;;;;2.10;0.52;;;;;;;21.73;29.68;99243.03;5047343;28;20033;-28
2023/04/02 10:41:25;;;;;;;1.02;0.52;;;;;;;21.67;30.18;99253.22;5047122;28;20032;-28
2023/04/02 10:44:00;;;;;;;0.70;0.30;;;;;;;21.76;30.18;99242.41;5047049;28;20095;-27
2023/04/02 10:46:53;;;;;;;0.90;0.50;;;;;;;22.47;30.85;99222.47;5047004;28;20501;-28
2023/04/02 10:49:23;;;;;;;1.08;0.45;;;;;;;22.63;27.51;99236.41;5046729;28;20440;-27
2023/04/02 10:52:12;;;;;;;2.40;0.57;;;;;;;22.34;29.83;99235.09;5047003;28;20024;-28
2023/04/02 10:54:51;;;;;;;1.20;0.30;;;;;;;22.44;27.50;99234.78;5046653;28;20029;-28
2023/04/02 10:57:30;;;;;;;1.65;0.40;;;;;;;22.58;28.77;99218.34;5045938;28;20104;-28
2023/04/02 11:00:07;;;;;;;0.93;0.30;;;;;;;22.22;27.24;99221.31;5045875;28;20060;-27
2023/04/02 11:02:33;;;;;;;1.13;0.50;;;;;;;22.10;28.21;99240.91;5046609;28;20021;-29
2023/04/02 11:05:07;;;;;;;0.88;0.32;;;;;;;22.39;27.59;99240.38;5046954;28;20424;-28
2023/04/02 11:07:45;;;;;;;1.85;0.63;;;;;;;23.46;28.66;99224.47;5046637;28;20098;-28
2023/04/02 11:10:17;;;;;;;0.63;0.32;;;;;;;23.54;25.78;99225.53;5046617;28;20032;-28
2023/04/02 11:12:57;;;;;;;0.52;0.30;;;;;;;24.13;25.77;99219.38;5046346;28;20025;-28
2023/04/02 11:15:23;;;;;;;1.40;0.40;;;;;;;23.08;25.57;99211.59;5046648;28;20028;-28
2023/04/02 11:17:49;;;;;;;1.30;0.30;;;;;;;23.11;25.63;99230.00;5046318;28;20025;-29
2023/04/02 11:20:49;;;;;;;0.75;0.52;;;;;;;22.82;26.92;99228.72;5046285;28;20028;-28
2023/04/02 11:23:18;;;;;;;2.40;0.60;;;;;;;23.41;25.61;99211.03;5046286;28;20060;-29
2023/04/02 11:25:44;;;;;;;1.27;0.90;;;;;;;23.50;25.12;99214.53;5046243;28;20035;-30
2023/04/02 11:28:30;;;;;;;2.58;0.52;;;;;;;23.69;26.47;99213.34;5046508;28;20051;-29
2023/04/02 11:30:56;;;;;;;0.50;0.40;;;;;;;23.97;25.70;99216.44;5046554;28;20033;-28
2023/04/02 11:33:32;;;;;;;0.60;0.43;;;;;;;24.06;24.85;99209.00;5046362;28;20025;-28
2023/04/02 11:35:58;;;;;;;0.90;0.45;;;;;;;24.25;24.58;99205.81;5046443;28;20021;-28
2023/04/02 11:38:23;;;;;;;0.40;0.40;;;;;;;24.01;23.48;99201.81;5046245;28;20115;-28
2023/04/02 11:40:48;;;;;;;2.20;0.85;;;;;;;23.83;24.71;99211.22;5046304;28;20025;-29
2023/04/02 11:43:32;;;;;;;2.10;0.52;;;;;;;23.44;25.40;99204.94;5045655;28;20405;-28
2023/04/02 11:46:22;;;;;;;1.38;0.88;;;;;;;23.53;23.90;99200.25;5046265;28;20025;-28
2023/04/02 11:48:47;;;;;;;1.50;0.75;;;;;;;23.17;23.60;99201.50;5045778;28;20029;-29
2023/04/02 11:51:22;;;;;;;0.93;0.57;;;;;;;23.94;24.37;99184.41;5046192;28;20416;-29
2023/04/02 11:53:49;;;;;;;0.80;0.50;;;;;;;23.97;25.15;99187.28;5046070;28;20056;-28
2023/04/02 11:56:42;;;;;;;1.27;0.60;;;;;;;24.60;24.71;99183.78;5046376;28;20029;-28
2023/04/02 11:59:16;;;;;;;1.50;0.50;;;;;;;25.06;22.99;99190.09;5046059;28;20028;-28
2023/04/02 12:01:59;;;;;;;2.22;0.40;;;;;;;24.75;23.10;99191.34;5045729;28;20040;-27
2023/04/02 12:05:03;;;;;;;2.15;0.63;;;;;;;24.27;23.90;99195.38;5046014;28;20029;-29
2023/04/02 12:07:51;;;;;;;1.23;0.40;;;;;;;23.76;24.10;99205.44;5046649;28;20036;-28
2023/04/02 12:10:16;;;;;;;1.38;0.50;;;;;;;24.31;23.80;99192.81;5049485;28;20075;-29